Terminal Aerodrome Forecast
Issued by NWS Wilmington, NC

Home | Current Version | Previous Version | Text Only | Print | Product List | Glossary On
Versions: 1 2 3 4 5 6 7 8 9 10 11 12 13 14 15 16 17 18 19 20 21 22
000
FTUS42 KILM 221727
TAFMYR
TAF
KMYR 221727Z 2218/2318 18008KT P6SM VCSH FEW008 BKN025
      TEMPO 2218/2221 6SM -TSRA BKN030CB
     FM222100 18009KT P6SM OVC050
     FM230000 18007KT P6SM BKN050
     FM230900 19005KT P6SM OVC025
     FM231200 22008KT P6SM BKN050
     FM231500 22009G18KT P6SM BKN025=

USA.gov is the U.S. government's official web portal to all federal, state and local government web resources and services.